createdAt,value
2023-03-02T00:01:13.567Z,7.20
2023-03-02T00:04:22.136Z,7.20
2023-03-02T00:07:29.806Z,9.30
2023-03-02T00:10:38.196Z,9.10
2023-03-02T00:13:45.919Z,10.30
2023-03-02T00:16:53.604Z,8.30
2023-03-02T00:20:01.603Z,10.90
2023-03-02T00:23:09.288Z,9.20
2023-03-02T00:26:17.190Z,9.60
2023-03-02T00:29:25.458Z,8.80
2023-03-02T00:32:32.897Z,7.50
2023-03-02T00:35:40.797Z,8.40
2023-03-02T00:38:48.936Z,7.80
2023-03-02T00:41:56.276Z,9.50
2023-03-02T00:45:04.361Z,8.40
2023-03-02T00:48:12.588Z,10.40
2023-03-02T00:51:20.080Z,13.40
2023-03-02T00:54:28.234Z,9.00
2023-03-02T00:57:36.568Z,8.20
2023-03-02T01:00:43.911Z,7.70
2023-03-02T01:03:52.003Z,7.80
2023-03-02T01:06:59.667Z,7.40
2023-03-02T01:10:08.032Z,8.00
2023-03-02T01:13:15.627Z,7.00
2023-03-02T01:16:23.205Z,7.60
2023-03-02T01:19:31.522Z,7.00
2023-03-02T01:22:38.863Z,7.10
2023-03-02T01:25:46.400Z,7.20
2023-03-02T01:28:53.840Z,7.50
2023-03-02T01:32:00.983Z,7.30
2023-03-02T01:35:08.767Z,7.40
2023-03-02T01:38:16.565Z,7.10
2023-03-02T01:41:23.652Z,7.40
2023-03-02T01:44:31.277Z,8.00
2023-03-02T01:47:39.047Z,8.00
2023-03-02T01:50:46.002Z,7.20
2023-03-02T01:53:55.204Z,7.20
2023-03-02T01:57:02.771Z,7.30
2023-03-02T02:00:10.017Z,7.00
2023-03-02T02:03:17.317Z,7.60
2023-03-02T02:06:24.735Z,7.70
2023-03-02T02:09:32.145Z,7.30
2023-03-02T02:12:39.170Z,7.10
2023-03-02T02:15:46.979Z,7.40
2023-03-02T02:18:54.345Z,7.40
2023-03-02T02:22:01.431Z,7.60
2023-03-02T02:25:09.088Z,7.50
2023-03-02T02:28:17.050Z,7.80
2023-03-02T02:31:24.097Z,7.10
2023-03-02T02:34:31.800Z,8.10
2023-03-02T02:37:38.819Z,7.70
2023-03-02T02:40:46.714Z,7.90
2023-03-02T02:43:54.563Z,7.20
2023-03-02T02:47:02.089Z,7.90
2023-03-02T02:50:09.661Z,8.00
2023-03-02T02:53:17.128Z,7.90
2023-03-02T02:56:25.172Z,7.70
2023-03-02T02:59:32.504Z,8.50
2023-03-02T03:02:40.061Z,8.50
2023-03-02T03:05:47.870Z,8.60
2023-03-02T03:08:54.870Z,8.20
2023-03-02T03:12:02.813Z,8.90
2023-03-02T03:15:10.645Z,7.60
2023-03-02T03:18:17.661Z,8.70
2023-03-02T03:21:25.459Z,8.90
2023-03-02T03:24:33.393Z,8.50
2023-03-02T03:27:40.458Z,8.40
2023-03-02T03:30:48.515Z,8.50
2023-03-02T03:33:55.832Z,9.00
2023-03-02T03:37:03.168Z,9.90
2023-03-02T03:40:11.102Z,11.10
2023-03-02T03:43:18.365Z,11.60
2023-03-02T03:46:25.823Z,12.00
2023-03-02T03:49:33.590Z,13.80
2023-03-02T03:52:41.196Z,12.60
2023-03-02T03:55:48.538Z,14.60
2023-03-02T03:58:55.860Z,14.90
2023-03-02T04:02:03.830Z,18.60
2023-03-02T04:05:11.247Z,15.30
2023-03-02T04:08:18.296Z,16.90
2023-03-02T04:11:26.186Z,18.00
2023-03-02T04:14:33.614Z,18.00
2023-03-02T04:17:40.896Z,18.90
2023-03-02T04:20:48.528Z,17.80
2023-03-02T04:23:55.576Z,17.90
2023-03-02T04:27:03.397Z,18.00
2023-03-02T04:30:10.702Z,19.70
2023-03-02T04:33:17.828Z,20.30
2023-03-02T04:36:25.598Z,19.10
2023-03-02T04:39:33.329Z,24.70
2023-03-02T04:42:40.871Z,21.80
2023-03-02T04:45:48.304Z,26.20
2023-03-02T04:48:56.060Z,25.90
2023-03-02T04:52:03.408Z,26.80
2023-03-02T04:55:10.963Z,27.80
2023-03-02T04:58:18.257Z,28.60
2023-03-02T05:01:26.128Z,28.40
2023-03-02T05:04:33.854Z,26.40
2023-03-02T05:07:41.505Z,29.60
2023-03-02T05:10:49.699Z,28.00
2023-03-02T05:13:57.075Z,28.10
2023-03-02T05:17:04.682Z,28.00
2023-03-02T05:20:12.279Z,28.20
2023-03-02T05:23:19.630Z,28.80
2023-03-02T05:26:26.959Z,27.00
2023-03-02T05:29:34.594Z,29.70
2023-03-02T05:32:41.538Z,29.20
2023-03-02T05:35:49.444Z,31.10
2023-03-02T05:38:57.184Z,31.40
2023-03-02T05:42:04.202Z,39.80
2023-03-02T05:45:11.968Z,36.50
2023-03-02T05:48:19.634Z,27.90
2023-03-02T05:51:27.176Z,26.30
2023-03-02T05:54:35.189Z,30.40
2023-03-02T05:57:42.748Z,29.80
2023-03-02T06:00:50.566Z,28.40
2023-03-02T06:03:58.291Z,31.00
2023-03-02T06:07:05.690Z,30.80
2023-03-02T06:10:13.008Z,30.10
2023-03-02T06:13:21.017Z,30.00
2023-03-02T06:16:28.449Z,29.70
2023-03-02T06:19:35.757Z,39.80
2023-03-02T06:22:43.325Z,49.30
2023-03-02T06:25:51.195Z,29.60
2023-03-02T06:28:58.856Z,27.70
2023-03-02T06:32:06.145Z,28.30
2023-03-02T06:35:13.846Z,28.40
2023-03-02T06:38:21.051Z,25.20
2023-03-02T06:41:28.481Z,24.40
2023-03-02T06:44:36.213Z,27.50
2023-03-02T06:47:43.638Z,22.40
2023-03-02T06:50:50.879Z,24.10
2023-03-02T06:53:58.729Z,26.30
2023-03-02T06:57:05.803Z,26.50
2023-03-02T07:00:13.504Z,38.30
2023-03-02T07:03:20.929Z,26.30
2023-03-02T07:06:27.919Z,40.40
2023-03-02T07:09:35.642Z,25.90
2023-03-02T07:12:43.318Z,25.30
2023-03-02T07:15:50.405Z,26.70
2023-03-02T07:18:58.218Z,25.80
2023-03-02T07:22:05.792Z,24.90
2023-03-02T07:25:12.973Z,27.50
2023-03-02T07:28:20.495Z,23.90
2023-03-02T07:31:27.958Z,23.80
2023-03-02T07:34:35.354Z,23.80
2023-03-02T07:37:42.704Z,26.40
2023-03-02T07:40:50.192Z,25.30
2023-03-02T07:43:57.509Z,29.60
2023-03-02T07:47:04.614Z,25.70
2023-03-02T07:50:12.449Z,25.00
2023-03-02T07:53:20.178Z,22.60
2023-03-02T07:56:27.084Z,23.50
2023-03-02T07:59:34.746Z,23.50
2023-03-02T08:02:42.424Z,21.40
2023-03-02T08:05:49.508Z,22.90
2023-03-02T08:08:57.067Z,21.40
2023-03-02T08:12:04.772Z,21.20
2023-03-02T08:15:11.720Z,18.10
2023-03-02T08:18:19.318Z,18.40
2023-03-02T08:21:26.550Z,19.10
2023-03-02T08:24:33.861Z,19.60
2023-03-02T08:27:41.709Z,18.70
2023-03-02T08:30:48.870Z,17.00
2023-03-02T08:33:56.245Z,17.70
2023-03-02T08:37:03.802Z,17.50
2023-03-02T08:40:11.067Z,17.40
2023-03-02T08:43:18.553Z,16.10
2023-03-02T08:46:25.948Z,19.10
2023-03-02T08:49:33.429Z,18.90
2023-03-02T08:52:40.712Z,18.10
2023-03-02T08:55:47.904Z,24.60
2023-03-02T08:58:55.559Z,16.50
2023-03-02T09:02:03.091Z,15.00
2023-03-02T09:05:10.402Z,16.50
2023-03-02T09:08:18.366Z,15.50
2023-03-02T09:11:25.782Z,16.40
2023-03-02T09:14:33.064Z,15.60
2023-03-02T09:17:40.540Z,14.90
2023-03-02T09:20:47.509Z,15.30
2023-03-02T09:23:55.224Z,16.60
2023-03-02T09:27:02.731Z,15.50
2023-03-02T09:30:09.778Z,15.00
2023-03-02T09:33:17.547Z,15.60
2023-03-02T09:36:25.278Z,14.90
2023-03-02T09:39:32.265Z,15.40
2023-03-02T09:42:44.136Z,15.40
2023-03-02T09:45:40.959Z,15.50
2023-03-02T09:48:48.386Z,14.40
2023-03-02T09:51:56.167Z,13.80
2023-03-02T09:55:03.408Z,12.80
2023-03-02T09:58:10.682Z,13.30
2023-03-02T10:01:18.269Z,13.30
2023-03-02T10:04:25.807Z,12.20
2023-03-02T10:07:33.132Z,12.80
2023-03-02T10:10:41.162Z,12.80
2023-03-02T10:13:48.867Z,13.30
2023-03-02T10:16:56.234Z,12.00
2023-03-02T10:20:03.517Z,12.10
2023-03-02T10:23:11.470Z,11.80
2023-03-02T10:26:18.617Z,12.60
2023-03-02T10:29:25.948Z,11.90
2023-03-02T10:32:33.638Z,13.00
2023-03-02T10:35:41.693Z,12.50
2023-03-02T10:38:49.181Z,13.30
2023-03-02T10:41:57.106Z,12.40
2023-03-02T10:45:04.183Z,12.60
2023-03-02T10:48:11.835Z,12.20
2023-03-02T10:51:19.331Z,13.70
2023-03-02T10:54:26.173Z,13.20
2023-03-02T10:57:33.832Z,13.20
2023-03-02T11:00:41.231Z,13.20
2023-03-02T11:03:48.484Z,13.10
2023-03-02T11:06:56.118Z,13.70
2023-03-02T11:10:03.645Z,12.90
2023-03-02T11:13:11.167Z,14.60
2023-03-02T11:16:19.021Z,14.10
2023-03-02T11:19:26.357Z,13.60
2023-03-02T11:22:33.690Z,12.00
2023-03-02T11:25:41.324Z,12.90
2023-03-02T11:28:48.870Z,12.70
2023-03-02T11:31:56.929Z,12.40
2023-03-02T11:35:04.184Z,12.70
2023-03-02T11:38:11.978Z,12.30
2023-03-02T11:41:19.507Z,12.00
2023-03-02T11:44:26.863Z,11.70
2023-03-02T11:47:34.808Z,13.00
2023-03-02T11:50:42.005Z,12.00
2023-03-02T11:53:49.542Z,12.10
2023-03-02T11:56:57.203Z,11.80
2023-03-02T12:00:04.547Z,11.80
2023-03-02T12:03:11.897Z,10.80
2023-03-02T12:06:19.314Z,11.90
2023-03-02T12:09:27.105Z,12.30
2023-03-02T12:12:34.405Z,11.60
2023-03-02T12:15:41.803Z,11.70
2023-03-02T12:18:49.721Z,11.20
2023-03-02T12:21:57.050Z,12.00
2023-03-02T12:25:04.501Z,11.40
2023-03-02T12:28:12.195Z,11.60
2023-03-02T12:31:19.518Z,11.90
2023-03-02T12:34:26.812Z,14.20
2023-03-02T12:37:34.527Z,14.50
2023-03-02T12:40:42.245Z,15.40
2023-03-02T12:43:50.140Z,15.90
2023-03-02T12:46:57.715Z,16.40
2023-03-02T12:50:04.946Z,16.10
2023-03-02T12:53:12.207Z,17.20
2023-03-02T12:56:19.479Z,17.60
2023-03-02T12:59:26.717Z,16.50
2023-03-02T13:02:34.112Z,16.80
2023-03-02T13:05:41.352Z,16.70
2023-03-02T13:08:48.987Z,14.00
2023-03-02T13:11:56.371Z,16.10
2023-03-02T13:15:03.926Z,15.50
2023-03-02T13:18:12.270Z,14.60
2023-03-02T13:21:19.329Z,15.80
2023-03-02T13:24:27.017Z,15.10
2023-03-02T13:27:34.606Z,14.70
2023-03-02T13:30:41.943Z,15.00
2023-03-02T13:33:49.770Z,14.50
2023-03-02T13:36:57.017Z,14.00
2023-03-02T13:40:04.385Z,13.70
2023-03-02T13:43:12.466Z,13.40
2023-03-02T13:46:19.782Z,13.30
2023-03-02T13:49:27.147Z,11.90
2023-03-02T13:52:34.149Z,12.20
2023-03-02T13:55:41.897Z,11.40
2023-03-02T13:58:49.694Z,12.40
2023-03-02T14:01:57.508Z,12.60
2023-03-02T14:05:05.058Z,11.60
2023-03-02T14:08:12.307Z,12.70
2023-03-02T14:11:19.704Z,12.80
2023-03-02T14:14:27.561Z,12.90
2023-03-02T14:17:34.790Z,12.60
2023-03-02T14:20:42.159Z,11.40
2023-03-02T14:23:49.813Z,12.70
2023-03-02T14:26:57.783Z,12.20
2023-03-02T14:30:05.295Z,11.10
2023-03-02T14:33:12.857Z,11.10
2023-03-02T14:36:20.737Z,11.00
2023-03-02T14:39:27.755Z,11.30
2023-03-02T14:42:35.463Z,10.30
2023-03-02T14:45:43.313Z,10.30
2023-03-02T14:48:50.239Z,10.50
2023-03-02T14:51:57.680Z,10.90
2023-03-02T14:55:05.403Z,11.50
2023-03-02T14:58:12.422Z,11.40
2023-03-02T15:01:19.858Z,11.50
2023-03-02T15:04:27.004Z,13.10
2023-03-02T15:07:34.421Z,12.20
2023-03-02T15:10:41.896Z,14.00
2023-03-02T15:13:49.167Z,13.90
2023-03-02T15:16:56.501Z,13.10
2023-03-02T15:20:04.345Z,12.80
2023-03-02T15:23:11.637Z,13.60
2023-03-02T15:26:19.200Z,13.30
2023-03-02T15:29:26.867Z,15.00
2023-03-02T15:32:34.587Z,15.90
2023-03-02T15:35:41.886Z,15.80
2023-03-02T15:38:49.129Z,17.00
2023-03-02T15:41:56.981Z,14.80
2023-03-02T15:45:04.403Z,14.50
2023-03-02T15:48:13.340Z,15.60
2023-03-02T15:51:21.278Z,15.90
2023-03-02T15:54:28.352Z,15.60
2023-03-02T15:57:36.383Z,14.90
2023-03-02T16:00:44.307Z,15.50
2023-03-02T16:03:51.644Z,16.30
2023-03-02T16:06:59.047Z,15.60
2023-03-02T16:10:06.799Z,14.20
2023-03-02T16:13:13.763Z,15.60
2023-03-02T16:16:21.672Z,13.80
2023-03-02T16:19:29.133Z,13.80
2023-03-02T16:22:36.661Z,14.60
2023-03-02T16:25:43.989Z,15.30
2023-03-02T16:28:51.245Z,14.60
2023-03-02T16:31:58.718Z,15.20
2023-03-02T16:35:06.512Z,16.40
2023-03-02T16:38:13.776Z,17.20
2023-03-02T16:41:21.521Z,16.40
2023-03-02T16:44:28.815Z,16.10
2023-03-02T16:47:36.189Z,19.90
2023-03-02T16:50:44.249Z,20.20
2023-03-02T16:53:51.844Z,19.80
2023-03-02T16:56:59.139Z,20.80
2023-03-02T17:00:06.852Z,17.20
2023-03-02T17:03:13.902Z,21.30
2023-03-02T17:06:21.543Z,22.40
2023-03-02T17:09:28.929Z,20.60
2023-03-02T17:12:35.834Z,20.50
2023-03-02T17:15:44.228Z,21.30
2023-03-02T17:18:51.262Z,22.00
2023-03-02T17:21:59.353Z,23.30
2023-03-02T17:25:06.404Z,25.20
2023-03-02T17:28:14.524Z,25.20
2023-03-02T17:31:21.949Z,24.60
2023-03-02T17:34:29.490Z,23.20
2023-03-02T17:37:37.156Z,23.00
2023-03-02T17:40:45.343Z,25.30
2023-03-02T17:43:52.430Z,23.90
2023-03-02T17:47:00.593Z,24.20
2023-03-02T17:50:07.759Z,24.90
2023-03-02T17:53:16.156Z,25.30
2023-03-02T17:56:23.813Z,24.10
2023-03-02T17:59:31.322Z,27.40
2023-03-02T18:02:38.865Z,27.90
2023-03-02T18:05:46.543Z,31.80
2023-03-02T18:08:54.081Z,29.40
2023-03-02T18:12:01.527Z,27.20
2023-03-02T18:15:09.456Z,28.10
2023-03-02T18:18:16.839Z,29.00
2023-03-02T18:21:24.407Z,28.70
2023-03-02T18:24:32.347Z,28.50
2023-03-02T18:27:39.971Z,27.00
2023-03-02T18:30:47.072Z,29.10
2023-03-02T18:33:55.021Z,29.30
2023-03-02T18:37:02.131Z,31.10
2023-03-02T18:40:10.120Z,30.60
2023-03-02T18:43:17.757Z,33.00
2023-03-02T18:46:24.824Z,32.30
2023-03-02T18:49:32.175Z,28.00
2023-03-02T18:52:40.202Z,28.60
2023-03-02T18:55:47.524Z,28.50
2023-03-02T18:58:54.832Z,25.60
2023-03-02T19:02:02.068Z,26.00
2023-03-02T19:05:09.484Z,27.90
2023-03-02T19:08:16.866Z,27.70
2023-03-02T19:11:24.202Z,35.00
2023-03-02T19:14:32.127Z,29.00
2023-03-02T19:17:39.441Z,26.10
2023-03-02T19:20:46.972Z,29.40
2023-03-02T19:23:54.363Z,30.30
2023-03-02T19:27:02.774Z,30.00
2023-03-02T19:30:10.374Z,30.20
2023-03-02T19:33:18.546Z,27.80
2023-03-02T19:36:25.585Z,27.20
2023-03-02T19:39:33.144Z,27.30
2023-03-02T19:42:40.800Z,28.20
2023-03-02T19:45:47.901Z,28.10
2023-03-02T19:48:55.303Z,28.00
2023-03-02T19:52:04.302Z,26.60
2023-03-02T19:55:12.522Z,26.70
2023-03-02T19:58:20.389Z,26.60
2023-03-02T20:01:27.916Z,28.30
2023-03-02T20:04:35.386Z,26.80
2023-03-02T20:07:42.936Z,31.50
2023-03-02T20:10:50.375Z,26.60
2023-03-02T20:13:57.886Z,25.80
2023-03-02T20:17:05.425Z,22.80
2023-03-02T20:20:12.566Z,24.70
2023-03-02T20:23:19.855Z,25.90
2023-03-02T20:26:26.839Z,26.40
2023-03-02T20:29:34.521Z,24.60
2023-03-02T20:32:42.053Z,22.50
2023-03-02T20:35:49.203Z,27.70
2023-03-02T20:38:56.930Z,24.30
2023-03-02T20:42:04.479Z,25.40
2023-03-02T20:45:11.716Z,23.30
2023-03-02T20:48:19.370Z,23.60
2023-03-02T20:51:26.668Z,21.70
2023-03-02T20:54:34.017Z,24.90
2023-03-02T20:57:41.753Z,24.80
2023-03-02T21:00:48.834Z,23.50
2023-03-02T21:03:56.548Z,24.00
2023-03-02T21:07:05.005Z,23.30
2023-03-02T21:10:12.468Z,22.20
2023-03-02T21:13:20.205Z,24.70
2023-03-02T21:16:28.230Z,24.60
2023-03-02T21:19:35.523Z,24.80
2023-03-02T21:22:43.394Z,25.60
2023-03-02T21:25:50.727Z,26.20
2023-03-02T21:28:58.002Z,25.70
2023-03-02T21:32:05.966Z,27.00
2023-03-02T21:35:12.925Z,26.80
2023-03-02T21:38:20.194Z,30.00
2023-03-02T21:41:28.041Z,27.30
2023-03-02T21:44:35.268Z,28.00
2023-03-02T21:47:42.507Z,27.40
2023-03-02T21:50:49.797Z,24.90
2023-03-02T21:53:57.566Z,26.60
2023-03-02T21:57:04.865Z,26.20
2023-03-02T22:00:11.822Z,25.80
2023-03-02T22:03:19.237Z,25.60
2023-03-02T22:06:26.746Z,28.00
2023-03-02T22:09:34.028Z,25.20
2023-03-02T22:12:41.642Z,23.20
2023-03-02T22:15:49.047Z,22.40
2023-03-02T22:18:56.670Z,22.90
2023-03-02T22:22:04.652Z,20.80
2023-03-02T22:25:11.680Z,20.80
2023-03-02T22:28:19.656Z,21.30
2023-03-02T22:31:27.533Z,21.80
2023-03-02T22:34:34.543Z,19.50
2023-03-02T22:37:42.457Z,20.70
2023-03-02T22:40:49.914Z,20.00
2023-03-02T22:43:57.307Z,19.00
2023-03-02T22:47:05.066Z,20.00
2023-03-02T22:50:12.405Z,18.60
2023-03-02T22:53:19.728Z,20.50
2023-03-02T22:56:27.433Z,19.50
2023-03-02T22:59:34.637Z,18.20
2023-03-02T23:02:42.033Z,19.30
2023-03-02T23:05:49.942Z,17.20
2023-03-02T23:08:57.369Z,18.50
2023-03-02T23:12:04.760Z,18.90
2023-03-02T23:15:11.867Z,19.00
2023-03-02T23:18:19.312Z,18.70
2023-03-02T23:21:28.241Z,18.90
2023-03-02T23:24:35.592Z,17.00
2023-03-02T23:27:43.543Z,17.30
2023-03-02T23:30:50.610Z,17.70
2023-03-02T23:33:58.196Z,18.80
2023-03-02T23:37:05.844Z,15.30
2023-03-02T23:40:13.170Z,14.90
2023-03-02T23:43:20.422Z,15.60
2023-03-02T23:46:28.116Z,14.80
2023-03-02T23:49:35.011Z,15.40
2023-03-02T23:52:42.885Z,13.60
2023-03-02T23:55:50.718Z,13.10
2023-03-02T23:58:57.968Z,13.70
